sensor_id;sensor_type;location;lat;lon;timestamp;P1;durP1;ratioP1;P2;durP2;ratioP2
41719;SDS011;27405;53.316;-6.294;2023-04-03T00:01:12;4.00;;;1.45;;
41719;SDS011;27405;53.316;-6.294;2023-04-03T00:03:38;7.10;;;1.95;;
41719;SDS011;27405;53.316;-6.294;2023-04-03T00:06:06;2.92;;;1.33;;
41719;SDS011;27405;53.316;-6.294;2023-04-03T00:08:33;5.40;;;1.80;;
41719;SDS011;27405;53.316;-6.294;2023-04-03T00:11:00;4.50;;;1.42;;
41719;SDS011;27405;53.316;-6.294;2023-04-03T00:13:25;5.53;;;1.60;;
41719;SDS011;27405;53.316;-6.294;2023-04-03T00:15:51;3.67;;;1.85;;
41719;SDS011;27405;53.316;-6.294;2023-04-03T00:18:17;5.10;;;1.67;;
41719;SDS011;27405;53.316;-6.294;2023-04-03T00:20:43;5.70;;;1.77;;
41719;SDS011;27405;53.316;-6.294;2023-04-03T00:23:09;7.65;;;1.73;;
41719;SDS011;27405;53.316;-6.294;2023-04-03T00:25:35;6.28;;;1.70;;
41719;SDS011;27405;53.316;-6.294;2023-04-03T00:28:01;2.50;;;1.42;;
41719;SDS011;27405;53.316;-6.294;2023-04-03T00:30:28;5.72;;;1.85;;
41719;SDS011;27405;53.316;-6.294;2023-04-03T00:32:54;6.20;;;1.90;;
41719;SDS011;27405;53.316;-6.294;2023-04-03T00:35:20;6.70;;;1.77;;
41719;SDS011;27405;53.316;-6.294;2023-04-03T00:37:47;4.82;;;1.70;;
41719;SDS011;27405;53.316;-6.294;2023-04-03T00:40:14;7.28;;;2.03;;
41719;SDS011;27405;53.316;-6.294;2023-04-03T00:42:41;7.50;;;1.97;;
41719;SDS011;27405;53.316;-6.294;2023-04-03T00:47:43;7.63;;;2.45;;
41719;SDS011;27405;53.316;-6.294;2023-04-03T00:50:09;6.35;;;2.22;;
41719;SDS011;27405;53.316;-6.294;2023-04-03T00:52:35;8.70;;;2.20;;
41719;SDS011;27405;53.316;-6.294;2023-04-03T00:55:04;6.80;;;2.05;;
41719;SDS011;27405;53.316;-6.294;2023-04-03T00:57:32;5.38;;;2.33;;
41719;SDS011;27405;53.316;-6.294;2023-04-03T01:00:02;5.10;;;2.05;;
41719;SDS011;27405;53.316;-6.294;2023-04-03T01:02:34;7.72;;;2.45;;
41719;SDS011;27405;53.316;-6.294;2023-04-03T01:05:00;7.75;;;2.35;;
41719;SDS011;27405;53.316;-6.294;2023-04-03T01:07:27;6.18;;;2.30;;
41719;SDS011;27405;53.316;-6.294;2023-04-03T01:09:56;6.93;;;1.98;;
41719;SDS011;27405;53.316;-6.294;2023-04-03T01:12:25;5.30;;;2.08;;
41719;SDS011;27405;53.316;-6.294;2023-04-03T01:14:56;6.82;;;2.28;;
41719;SDS011;27405;53.316;-6.294;2023-04-03T01:23:03;6.60;;;1.70;;
41719;SDS011;27405;53.316;-6.294;2023-04-03T01:28:07;3.60;;;1.67;;
41719;SDS011;27405;53.316;-6.294;2023-04-03T01:30:35;5.40;;;1.70;;
41719;SDS011;27405;53.316;-6.294;2023-04-03T01:33:08;2.65;;;1.67;;
41719;SDS011;27405;53.316;-6.294;2023-04-03T01:35:33;5.03;;;1.80;;
41719;SDS011;27405;53.316;-6.294;2023-04-03T01:37:59;4.63;;;1.85;;
41719;SDS011;27405;53.316;-6.294;2023-04-03T01:40:25;9.98;;;2.08;;
41719;SDS011;27405;53.316;-6.294;2023-04-03T01:42:51;3.40;;;1.67;;
41719;SDS011;27405;53.316;-6.294;2023-04-03T01:45:16;6.97;;;2.00;;
41719;SDS011;27405;53.316;-6.294;2023-04-03T01:47:42;6.10;;;1.92;;
41719;SDS011;27405;53.316;-6.294;2023-04-03T01:50:08;5.53;;;1.95;;
41719;SDS011;27405;53.316;-6.294;2023-04-03T01:52:34;7.32;;;1.92;;
41719;SDS011;27405;53.316;-6.294;2023-04-03T01:54:59;5.15;;;1.80;;
41719;SDS011;27405;53.316;-6.294;2023-04-03T01:57:25;6.05;;;1.90;;
41719;SDS011;27405;53.316;-6.294;2023-04-03T01:59:51;5.50;;;2.00;;
41719;SDS011;27405;53.316;-6.294;2023-04-03T02:02:16;6.22;;;1.98;;
41719;SDS011;27405;53.316;-6.294;2023-04-03T02:04:42;6.78;;;2.10;;
41719;SDS011;27405;53.316;-6.294;2023-04-03T02:07:08;6.15;;;2.60;;
41719;SDS011;27405;53.316;-6.294;2023-04-03T02:09:33;4.65;;;2.00;;
41719;SDS011;27405;53.316;-6.294;2023-04-03T02:11:59;5.63;;;2.20;;
41719;SDS011;27405;53.316;-6.294;2023-04-03T02:14:25;4.53;;;1.73;;
41719;SDS011;27405;53.316;-6.294;2023-04-03T02:16:52;4.80;;;1.67;;
41719;SDS011;27405;53.316;-6.294;2023-04-03T02:19:18;7.47;;;2.05;;
41719;SDS011;27405;53.316;-6.294;2023-04-03T02:21:43;3.72;;;1.98;;
41719;SDS011;27405;53.316;-6.294;2023-04-03T02:24:09;4.05;;;1.88;;
41719;SDS011;27405;53.316;-6.294;2023-04-03T02:26:35;6.15;;;1.90;;
41719;SDS011;27405;53.316;-6.294;2023-04-03T02:29:01;5.43;;;2.00;;
41719;SDS011;27405;53.316;-6.294;2023-04-03T02:31:26;6.13;;;2.50;;
41719;SDS011;27405;53.316;-6.294;2023-04-03T02:33:52;5.47;;;2.00;;
41719;SDS011;27405;53.316;-6.294;2023-04-03T02:36:18;6.07;;;2.10;;
41719;SDS011;27405;53.316;-6.294;2023-04-03T02:38:43;6.25;;;2.25;;
41719;SDS011;27405;53.316;-6.294;2023-04-03T02:41:10;5.38;;;3.08;;
41719;SDS011;27405;53.316;-6.294;2023-04-03T02:43:37;4.53;;;2.35;;
41719;SDS011;27405;53.316;-6.294;2023-04-03T02:46:03;7.72;;;2.38;;
41719;SDS011;27405;53.316;-6.294;2023-04-03T02:48:29;7.75;;;2.80;;
41719;SDS011;27405;53.316;-6.294;2023-04-03T02:50:55;7.20;;;2.67;;
41719;SDS011;27405;53.316;-6.294;2023-04-03T02:53:21;8.35;;;2.88;;
41719;SDS011;27405;53.316;-6.294;2023-04-03T02:55:47;9.00;;;2.78;;
41719;SDS011;27405;53.316;-6.294;2023-04-03T02:58:13;9.25;;;2.72;;
41719;SDS011;27405;53.316;-6.294;2023-04-03T03:00:39;8.63;;;3.00;;
41719;SDS011;27405;53.316;-6.294;2023-04-03T03:03:05;9.48;;;2.90;;
41719;SDS011;27405;53.316;-6.294;2023-04-03T03:05:31;7.75;;;3.08;;
41719;SDS011;27405;53.316;-6.294;2023-04-03T03:07:57;8.27;;;3.00;;
41719;SDS011;27405;53.316;-6.294;2023-04-03T03:10:23;8.30;;;3.30;;
41719;SDS011;27405;53.316;-6.294;2023-04-03T03:12:50;11.93;;;3.80;;
41719;SDS011;27405;53.316;-6.294;2023-04-03T03:15:16;11.35;;;3.58;;
41719;SDS011;27405;53.316;-6.294;2023-04-03T03:17:42;7.93;;;3.50;;
41719;SDS011;27405;53.316;-6.294;2023-04-03T03:20:08;8.93;;;3.60;;
41719;SDS011;27405;53.316;-6.294;2023-04-03T03:22:35;10.65;;;3.70;;
41719;SDS011;27405;53.316;-6.294;2023-04-03T03:25:00;8.50;;;3.70;;
41719;SDS011;27405;53.316;-6.294;2023-04-03T03:27:27;12.60;;;3.50;;
41719;SDS011;27405;53.316;-6.294;2023-04-03T03:29:53;6.63;;;3.55;;
41719;SDS011;27405;53.316;-6.294;2023-04-03T03:32:19;9.38;;;4.03;;
41719;SDS011;27405;53.316;-6.294;2023-04-03T03:34:45;8.13;;;3.85;;
41719;SDS011;27405;53.316;-6.294;2023-04-03T03:37:11;9.82;;;3.45;;
41719;SDS011;27405;53.316;-6.294;2023-04-03T03:39:37;10.35;;;3.97;;
41719;SDS011;27405;53.316;-6.294;2023-04-03T03:42:02;12.77;;;4.00;;
41719;SDS011;27405;53.316;-6.294;2023-04-03T03:44:28;9.57;;;3.97;;
41719;SDS011;27405;53.316;-6.294;2023-04-03T03:46:55;9.65;;;3.80;;
41719;SDS011;27405;53.316;-6.294;2023-04-03T03:49:21;9.18;;;4.00;;
41719;SDS011;27405;53.316;-6.294;2023-04-03T03:51:47;13.57;;;4.72;;
41719;SDS011;27405;53.316;-6.294;2023-04-03T03:54:12;8.98;;;3.85;;
41719;SDS011;27405;53.316;-6.294;2023-04-03T03:56:38;10.38;;;4.13;;
41719;SDS011;27405;53.316;-6.294;2023-04-03T03:59:05;8.55;;;4.15;;
41719;SDS011;27405;53.316;-6.294;2023-04-03T04:01:30;10.80;;;4.13;;
41719;SDS011;27405;53.316;-6.294;2023-04-03T04:03:56;10.75;;;4.63;;
41719;SDS011;27405;53.316;-6.294;2023-04-03T04:06:22;10.75;;;4.97;;
41719;SDS011;27405;53.316;-6.294;2023-04-03T04:08:48;13.13;;;5.38;;
41719;SDS011;27405;53.316;-6.294;2023-04-03T04:11:14;12.02;;;5.18;;
41719;SDS011;27405;53.316;-6.294;2023-04-03T04:13:40;10.98;;;5.90;;
41719;SDS011;27405;53.316;-6.294;2023-04-03T04:16:06;12.35;;;5.90;;
41719;SDS011;27405;53.316;-6.294;2023-04-03T04:18:32;12.25;;;5.93;;
41719;SDS011;27405;53.316;-6.294;2023-04-03T04:20:57;13.20;;;5.65;;
41719;SDS011;27405;53.316;-6.294;2023-04-03T04:23:23;11.50;;;6.05;;
41719;SDS011;27405;53.316;-6.294;2023-04-03T04:25:49;10.73;;;5.88;;
41719;SDS011;27405;53.316;-6.294;2023-04-03T04:28:16;13.10;;;5.65;;
41719;SDS011;27405;53.316;-6.294;2023-04-03T04:30:42;16.27;;;6.38;;
41719;SDS011;27405;53.316;-6.294;2023-04-03T04:33:08;9.80;;;5.78;;
41719;SDS011;27405;53.316;-6.294;2023-04-03T04:35:34;14.18;;;6.22;;
41719;SDS011;27405;53.316;-6.294;2023-04-03T04:38:00;12.40;;;6.50;;
41719;SDS011;27405;53.316;-6.294;2023-04-03T04:40:26;12.50;;;6.85;;
41719;SDS011;27405;53.316;-6.294;2023-04-03T04:42:52;12.32;;;6.20;;
41719;SDS011;27405;53.316;-6.294;2023-04-03T04:45:18;11.85;;;5.82;;
41719;SDS011;27405;53.316;-6.294;2023-04-03T04:47:44;14.82;;;7.28;;
41719;SDS011;27405;53.316;-6.294;2023-04-03T04:50:09;10.75;;;5.63;;
41719;SDS011;27405;53.316;-6.294;2023-04-03T04:52:36;10.30;;;5.55;;
41719;SDS011;27405;53.316;-6.294;2023-04-03T04:55:02;13.13;;;6.78;;
41719;SDS011;27405;53.316;-6.294;2023-04-03T04:57:28;13.52;;;6.72;;
41719;SDS011;27405;53.316;-6.294;2023-04-03T04:59:54;13.10;;;6.22;;
41719;SDS011;27405;53.316;-6.294;2023-04-03T05:02:20;14.15;;;5.40;;
41719;SDS011;27405;53.316;-6.294;2023-04-03T05:04:45;13.68;;;5.70;;
41719;SDS011;27405;53.316;-6.294;2023-04-03T05:07:11;8.68;;;5.00;;
41719;SDS011;27405;53.316;-6.294;2023-04-03T05:09:37;8.25;;;3.85;;
41719;SDS011;27405;53.316;-6.294;2023-04-03T05:12:03;10.90;;;4.50;;
41719;SDS011;27405;53.316;-6.294;2023-04-03T05:14:28;12.63;;;4.88;;
41719;SDS011;27405;53.316;-6.294;2023-04-03T05:16:55;10.23;;;4.85;;
41719;SDS011;27405;53.316;-6.294;2023-04-03T05:19:20;9.27;;;4.70;;
41719;SDS011;27405;53.316;-6.294;2023-04-03T05:21:46;12.52;;;4.88;;
41719;SDS011;27405;53.316;-6.294;2023-04-03T05:24:12;11.98;;;5.53;;
41719;SDS011;27405;53.316;-6.294;2023-04-03T05:26:41;9.63;;;4.40;;
41719;SDS011;27405;53.316;-6.294;2023-04-03T05:29:07;9.35;;;4.60;;
41719;SDS011;27405;53.316;-6.294;2023-04-03T05:31:33;10.95;;;4.50;;
41719;SDS011;27405;53.316;-6.294;2023-04-03T05:33:59;11.23;;;4.22;;
41719;SDS011;27405;53.316;-6.294;2023-04-03T05:36:25;10.02;;;4.60;;
41719;SDS011;27405;53.316;-6.294;2023-04-03T05:38:51;14.10;;;4.90;;
41719;SDS011;27405;53.316;-6.294;2023-04-03T05:41:17;11.77;;;4.85;;
41719;SDS011;27405;53.316;-6.294;2023-04-03T05:43:43;15.65;;;5.22;;
41719;SDS011;27405;53.316;-6.294;2023-04-03T05:46:15;14.95;;;5.82;;
41719;SDS011;27405;53.316;-6.294;2023-04-03T05:48:43;15.07;;;5.90;;
41719;SDS011;27405;53.316;-6.294;2023-04-03T05:51:17;14.45;;;6.35;;
41719;SDS011;27405;53.316;-6.294;2023-04-03T05:53:45;18.35;;;6.38;;
41719;SDS011;27405;53.316;-6.294;2023-04-03T05:56:12;17.95;;;6.90;;
41719;SDS011;27405;53.316;-6.294;2023-04-03T05:58:37;17.27;;;6.90;;
41719;SDS011;27405;53.316;-6.294;2023-04-03T06:01:03;18.42;;;7.60;;
41719;SDS011;27405;53.316;-6.294;2023-04-03T06:03:30;18.17;;;7.47;;
41719;SDS011;27405;53.316;-6.294;2023-04-03T06:05:56;19.52;;;7.38;;
41719;SDS011;27405;53.316;-6.294;2023-04-03T06:08:22;18.13;;;7.07;;
41719;SDS011;27405;53.316;-6.294;2023-04-03T06:10:48;15.98;;;7.47;;
41719;SDS011;27405;53.316;-6.294;2023-04-03T06:13:15;20.08;;;7.93;;
41719;SDS011;27405;53.316;-6.294;2023-04-03T06:15:41;20.77;;;7.78;;
41719;SDS011;27405;53.316;-6.294;2023-04-03T06:18:07;16.95;;;7.57;;
41719;SDS011;27405;53.316;-6.294;2023-04-03T06:20:33;20.92;;;6.97;;
41719;SDS011;27405;53.316;-6.294;2023-04-03T06:22:59;17.95;;;6.78;;
41719;SDS011;27405;53.316;-6.294;2023-04-03T06:25:25;15.13;;;6.40;;
41719;SDS011;27405;53.316;-6.294;2023-04-03T06:27:51;18.63;;;8.00;;
41719;SDS011;27405;53.316;-6.294;2023-04-03T06:30:17;25.63;;;13.85;;
41719;SDS011;27405;53.316;-6.294;2023-04-03T06:32:43;20.83;;;8.32;;
41719;SDS011;27405;53.316;-6.294;2023-04-03T06:35:08;19.60;;;7.93;;
41719;SDS011;27405;53.316;-6.294;2023-04-03T06:37:34;19.63;;;8.07;;
41719;SDS011;27405;53.316;-6.294;2023-04-03T06:40:00;17.80;;;8.48;;
41719;SDS011;27405;53.316;-6.294;2023-04-03T06:42:26;18.50;;;8.35;;
41719;SDS011;27405;53.316;-6.294;2023-04-03T06:44:52;23.67;;;8.43;;
41719;SDS011;27405;53.316;-6.294;2023-04-03T06:47:18;22.10;;;8.38;;
41719;SDS011;27405;53.316;-6.294;2023-04-03T06:49:44;23.33;;;8.43;;
41719;SDS011;27405;53.316;-6.294;2023-04-03T06:52:10;17.83;;;7.03;;
41719;SDS011;27405;53.316;-6.294;2023-04-03T06:54:37;21.33;;;7.50;;
41719;SDS011;27405;53.316;-6.294;2023-04-03T06:57:03;19.75;;;7.55;;
41719;SDS011;27405;53.316;-6.294;2023-04-03T06:59:29;22.40;;;7.53;;
41719;SDS011;27405;53.316;-6.294;2023-04-03T07:01:55;22.13;;;7.00;;
41719;SDS011;27405;53.316;-6.294;2023-04-03T07:04:21;20.50;;;7.75;;
41719;SDS011;27405;53.316;-6.294;2023-04-03T07:06:46;26.15;;;8.32;;
41719;SDS011;27405;53.316;-6.294;2023-04-03T07:09:15;20.02;;;6.95;;
41719;SDS011;27405;53.316;-6.294;2023-04-03T07:11:41;21.48;;;7.30;;
41719;SDS011;27405;53.316;-6.294;2023-04-03T07:14:07;20.00;;;7.07;;
41719;SDS011;27405;53.316;-6.294;2023-04-03T07:16:33;21.50;;;6.65;;
41719;SDS011;27405;53.316;-6.294;2023-04-03T07:19:00;23.83;;;7.60;;
41719;SDS011;27405;53.316;-6.294;2023-04-03T07:21:26;21.42;;;7.18;;
41719;SDS011;27405;53.316;-6.294;2023-04-03T07:23:52;22.67;;;6.57;;
41719;SDS011;27405;53.316;-6.294;2023-04-03T07:26:18;21.30;;;6.25;;
41719;SDS011;27405;53.316;-6.294;2023-04-03T07:28:45;21.05;;;6.80;;
41719;SDS011;27405;53.316;-6.294;2023-04-03T07:31:13;21.88;;;6.50;;
41719;SDS011;27405;53.316;-6.294;2023-04-03T07:33:40;22.20;;;6.72;;
41719;SDS011;27405;53.316;-6.294;2023-04-03T07:36:06;19.60;;;6.80;;
41719;SDS011;27405;53.316;-6.294;2023-04-03T07:38:33;23.35;;;6.68;;
41719;SDS011;27405;53.316;-6.294;2023-04-03T07:41:00;17.48;;;6.20;;
41719;SDS011;27405;53.316;-6.294;2023-04-03T07:43:26;20.40;;;6.32;;
41719;SDS011;27405;53.316;-6.294;2023-04-03T07:45:52;22.85;;;6.53;;
41719;SDS011;27405;53.316;-6.294;2023-04-03T07:48:20;16.02;;;6.03;;
41719;SDS011;27405;53.316;-6.294;2023-04-03T07:50:50;21.65;;;6.22;;
41719;SDS011;27405;53.316;-6.294;2023-04-03T07:53:15;19.13;;;5.97;;
41719;SDS011;27405;53.316;-6.294;2023-04-03T07:55:41;22.85;;;6.60;;
41719;SDS011;27405;53.316;-6.294;2023-04-03T07:58:10;17.23;;;5.90;;
41719;SDS011;27405;53.316;-6.294;2023-04-03T08:00:38;15.57;;;5.28;;
41719;SDS011;27405;53.316;-6.294;2023-04-03T08:03:04;18.67;;;5.45;;
41719;SDS011;27405;53.316;-6.294;2023-04-03T08:05:31;16.98;;;5.22;;
41719;SDS011;27405;53.316;-6.294;2023-04-03T08:07:56;26.52;;;5.47;;
41719;SDS011;27405;53.316;-6.294;2023-04-03T08:10:22;18.77;;;5.63;;
41719;SDS011;27405;53.316;-6.294;2023-04-03T08:12:48;18.40;;;5.05;;
41719;SDS011;27405;53.316;-6.294;2023-04-03T08:15:13;19.60;;;5.47;;
41719;SDS011;27405;53.316;-6.294;2023-04-03T08:17:39;17.90;;;4.63;;
41719;SDS011;27405;53.316;-6.294;2023-04-03T08:20:06;17.63;;;4.78;;
41719;SDS011;27405;53.316;-6.294;2023-04-03T08:22:33;19.75;;;4.85;;
41719;SDS011;27405;53.316;-6.294;2023-04-03T08:24:59;16.05;;;4.70;;
41719;SDS011;27405;53.316;-6.294;2023-04-03T08:27:26;18.33;;;4.93;;
41719;SDS011;27405;53.316;-6.294;2023-04-03T08:29:53;20.63;;;5.15;;
41719;SDS011;27405;53.316;-6.294;2023-04-03T08:32:19;24.17;;;5.32;;
41719;SDS011;27405;53.316;-6.294;2023-04-03T08:34:45;19.00;;;5.35;;
41719;SDS011;27405;53.316;-6.294;2023-04-03T08:37:11;22.58;;;5.28;;
41719;SDS011;27405;53.316;-6.294;2023-04-03T08:39:37;21.23;;;5.90;;
41719;SDS011;27405;53.316;-6.294;2023-04-03T08:42:05;19.63;;;5.70;;
41719;SDS011;27405;53.316;-6.294;2023-04-03T08:44:55;16.77;;;5.40;;
41719;SDS011;27405;53.316;-6.294;2023-04-03T08:47:42;15.70;;;5.15;;
41719;SDS011;27405;53.316;-6.294;2023-04-03T08:50:36;19.15;;;5.55;;
41719;SDS011;27405;53.316;-6.294;2023-04-03T08:53:12;17.58;;;5.18;;
41719;SDS011;27405;53.316;-6.294;2023-04-03T08:55:47;14.48;;;5.15;;
41719;SDS011;27405;53.316;-6.294;2023-04-03T08:58:21;23.25;;;5.55;;
41719;SDS011;27405;53.316;-6.294;2023-04-03T09:01:02;25.85;;;5.75;;
41719;SDS011;27405;53.316;-6.294;2023-04-03T09:03:31;16.98;;;5.25;;
41719;SDS011;27405;53.316;-6.294;2023-04-03T09:22:49;16.50;;;4.30;;
41719;SDS011;27405;53.316;-6.294;2023-04-03T09:27:54;12.25;;;4.00;;
41719;SDS011;27405;53.316;-6.294;2023-04-03T09:30:22;18.98;;;5.00;;
41719;SDS011;27405;53.316;-6.294;2023-04-03T09:32:51;16.05;;;4.70;;
41719;SDS011;27405;53.316;-6.294;2023-04-03T09:37:52;16.75;;;4.57;;
41719;SDS011;27405;53.316;-6.294;2023-04-03T09:42:51;19.05;;;4.63;;
41719;SDS011;27405;53.316;-6.294;2023-04-03T09:45:22;19.83;;;5.03;;
41719;SDS011;27405;53.316;-6.294;2023-04-03T09:48:04;18.48;;;5.13;;
41719;SDS011;27405;53.316;-6.294;2023-04-03T09:55:58;21.10;;;5.32;;
41719;SDS011;27405;53.316;-6.294;2023-04-03T09:58:32;21.10;;;5.43;;
41719;SDS011;27405;53.316;-6.294;2023-04-03T10:01:02;19.08;;;4.22;;
41719;SDS011;27405;53.316;-6.294;2023-04-03T10:05:54;15.35;;;4.53;;
41719;SDS011;27405;53.316;-6.294;2023-04-03T10:08:23;18.83;;;5.43;;
41719;SDS011;27405;53.316;-6.294;2023-04-03T10:11:16;17.90;;;4.85;;
41719;SDS011;27405;53.316;-6.294;2023-04-03T10:13:54;22.13;;;4.85;;
41719;SDS011;27405;53.316;-6.294;2023-04-03T10:16:26;18.45;;;4.78;;
41719;SDS011;27405;53.316;-6.294;2023-04-03T10:19:11;24.58;;;5.53;;
41719;SDS011;27405;53.316;-6.294;2023-04-03T10:21:50;18.05;;;4.90;;
41719;SDS011;27405;53.316;-6.294;2023-04-03T10:29:59;23.70;;;5.45;;
41719;SDS011;27405;53.316;-6.294;2023-04-03T10:49:57;23.55;;;5.15;;
41719;SDS011;27405;53.316;-6.294;2023-04-03T10:58:05;25.02;;;4.90;;
41719;SDS011;27405;53.316;-6.294;2023-04-03T11:00:41;23.33;;;4.88;;
41719;SDS011;27405;53.316;-6.294;2023-04-03T11:03:17;18.35;;;4.30;;
41719;SDS011;27405;53.316;-6.294;2023-04-03T11:05:51;19.85;;;4.72;;
41719;SDS011;27405;53.316;-6.294;2023-04-03T11:11:38;23.02;;;4.78;;
41719;SDS011;27405;53.316;-6.294;2023-04-03T11:14:17;19.77;;;4.97;;
41719;SDS011;27405;53.316;-6.294;2023-04-03T11:17:33;22.55;;;5.32;;
41719;SDS011;27405;53.316;-6.294;2023-04-03T11:22:22;23.38;;;5.40;;
41719;SDS011;27405;53.316;-6.294;2023-04-03T11:27:48;22.33;;;5.72;;
41719;SDS011;27405;53.316;-6.294;2023-04-03T11:35:35;23.75;;;5.68;;
41719;SDS011;27405;53.316;-6.294;2023-04-03T11:38:03;29.40;;;5.47;;
41719;SDS011;27405;53.316;-6.294;2023-04-03T11:40:34;27.40;;;5.97;;
41719;SDS011;27405;53.316;-6.294;2023-04-03T11:51:39;21.98;;;4.97;;
41719;SDS011;27405;53.316;-6.294;2023-04-03T11:53:43;22.60;;;5.03;;
41719;SDS011;27405;53.316;-6.294;2023-04-03T12:01:48;19.98;;;4.50;;
41719;SDS011;27405;53.316;-6.294;2023-04-03T12:04:20;19.52;;;4.85;;
41719;SDS011;27405;53.316;-6.294;2023-04-03T12:11:57;25.10;;;5.43;;
41719;SDS011;27405;53.316;-6.294;2023-04-03T12:14:25;20.70;;;5.13;;
41719;SDS011;27405;53.316;-6.294;2023-04-03T12:16:55;24.15;;;4.82;;
41719;SDS011;27405;53.316;-6.294;2023-04-03T12:19:33;23.52;;;4.95;;
41719;SDS011;27405;53.316;-6.294;2023-04-03T12:22:12;21.58;;;5.00;;
41719;SDS011;27405;53.316;-6.294;2023-04-03T12:24:44;17.17;;;4.78;;
41719;SDS011;27405;53.316;-6.294;2023-04-03T12:37:46;18.63;;;4.72;;
41719;SDS011;27405;53.316;-6.294;2023-04-03T12:43:14;19.25;;;4.78;;
41719;SDS011;27405;53.316;-6.294;2023-04-03T12:48:22;22.00;;;5.38;;
41719;SDS011;27405;53.316;-6.294;2023-04-03T12:50:51;18.20;;;4.55;;
41719;SDS011;27405;53.316;-6.294;2023-04-03T12:53:24;25.42;;;6.15;;
41719;SDS011;27405;53.316;-6.294;2023-04-03T12:56:18;18.20;;;4.72;;
41719;SDS011;27405;53.316;-6.294;2023-04-03T12:58:47;20.02;;;4.50;;
41719;SDS011;27405;53.316;-6.294;2023-04-03T13:01:14;26.08;;;5.18;;
41719;SDS011;27405;53.316;-6.294;2023-04-03T13:03:53;20.35;;;4.68;;
41719;SDS011;27405;53.316;-6.294;2023-04-03T13:06:24;22.13;;;5.20;;
41719;SDS011;27405;53.316;-6.294;2023-04-03T13:08:53;19.08;;;4.65;;
41719;SDS011;27405;53.316;-6.294;2023-04-03T13:11:22;24.42;;;4.35;;
41719;SDS011;27405;53.316;-6.294;2023-04-03T13:14:00;15.18;;;4.15;;
41719;SDS011;27405;53.316;-6.294;2023-04-03T13:16:28;17.85;;;4.65;;
41719;SDS011;27405;53.316;-6.294;2023-04-03T13:18:54;16.58;;;4.00;;
41719;SDS011;27405;53.316;-6.294;2023-04-03T13:21:21;19.67;;;4.40;;
41719;SDS011;27405;53.316;-6.294;2023-04-03T13:23:54;25.58;;;5.50;;
41719;SDS011;27405;53.316;-6.294;2023-04-03T13:26:24;22.73;;;5.97;;
41719;SDS011;27405;53.316;-6.294;2023-04-03T13:28:56;20.45;;;5.72;;
41719;SDS011;27405;53.316;-6.294;2023-04-03T13:31:32;23.08;;;5.55;;
41719;SDS011;27405;53.316;-6.294;2023-04-03T13:36:32;21.58;;;5.00;;
41719;SDS011;27405;53.316;-6.294;2023-04-03T13:41:50;20.88;;;5.25;;
41719;SDS011;27405;53.316;-6.294;2023-04-03T13:46:46;25.35;;;5.75;;
41719;SDS011;27405;53.316;-6.294;2023-04-03T13:49:36;22.85;;;5.78;;
41719;SDS011;27405;53.316;-6.294;2023-04-03T13:52:17;22.50;;;4.60;;
41719;SDS011;27405;53.316;-6.294;2023-04-03T13:54:58;26.10;;;5.18;;
41719;SDS011;27405;53.316;-6.294;2023-04-03T13:57:25;21.67;;;4.70;;
41719;SDS011;27405;53.316;-6.294;2023-04-03T13:59:52;18.33;;;4.97;;
41719;SDS011;27405;53.316;-6.294;2023-04-03T14:02:20;20.67;;;5.45;;
41719;SDS011;27405;53.316;-6.294;2023-04-03T14:04:52;22.83;;;4.82;;
41719;SDS011;27405;53.316;-6.294;2023-04-03T14:07:23;23.58;;;4.60;;
41719;SDS011;27405;53.316;-6.294;2023-04-03T14:09:49;19.80;;;4.78;;
41719;SDS011;27405;53.316;-6.294;2023-04-03T14:12:26;21.50;;;4.65;;
41719;SDS011;27405;53.316;-6.294;2023-04-03T14:15:04;16.90;;;4.05;;
41719;SDS011;27405;53.316;-6.294;2023-04-03T14:17:37;16.13;;;4.05;;
41719;SDS011;27405;53.316;-6.294;2023-04-03T14:20:03;17.98;;;4.13;;
41719;SDS011;27405;53.316;-6.294;2023-04-03T14:22:31;21.10;;;4.20;;
41719;SDS011;27405;53.316;-6.294;2023-04-03T14:24:59;18.73;;;3.80;;
41719;SDS011;27405;53.316;-6.294;2023-04-03T14:27:31;14.00;;;3.30;;
41719;SDS011;27405;53.316;-6.294;2023-04-03T14:30:01;17.63;;;3.70;;
41719;SDS011;27405;53.316;-6.294;2023-04-03T14:32:28;14.75;;;3.42;;
41719;SDS011;27405;53.316;-6.294;2023-04-03T14:34:55;19.15;;;3.97;;
41719;SDS011;27405;53.316;-6.294;2023-04-03T14:37:25;14.05;;;4.20;;
41719;SDS011;27405;53.316;-6.294;2023-04-03T14:39:54;12.57;;;3.15;;
41719;SDS011;27405;53.316;-6.294;2023-04-03T14:42:22;20.52;;;3.97;;
41719;SDS011;27405;53.316;-6.294;2023-04-03T14:44:50;12.77;;;3.58;;
41719;SDS011;27405;53.316;-6.294;2023-04-03T14:47:18;15.20;;;3.88;;
41719;SDS011;27405;53.316;-6.294;2023-04-03T14:49:46;12.77;;;3.10;;
41719;SDS011;27405;53.316;-6.294;2023-04-03T14:52:23;15.82;;;3.38;;
41719;SDS011;27405;53.316;-6.294;2023-04-03T14:54:56;22.73;;;4.20;;
41719;SDS011;27405;53.316;-6.294;2023-04-03T14:57:23;14.95;;;3.78;;
41719;SDS011;27405;53.316;-6.294;2023-04-03T14:59:51;18.63;;;4.05;;
41719;SDS011;27405;53.316;-6.294;2023-04-03T15:04:54;13.10;;;3.47;;
41719;SDS011;27405;53.316;-6.294;2023-04-03T15:07:20;19.02;;;4.03;;
41719;SDS011;27405;53.316;-6.294;2023-04-03T15:09:46;21.42;;;3.78;;
41719;SDS011;27405;53.316;-6.294;2023-04-03T15:12:12;17.25;;;3.60;;
41719;SDS011;27405;53.316;-6.294;2023-04-03T15:14:38;18.25;;;3.67;;
41719;SDS011;27405;53.316;-6.294;2023-04-03T15:17:04;14.93;;;3.40;;
41719;SDS011;27405;53.316;-6.294;2023-04-03T15:19:33;18.38;;;3.90;;
41719;SDS011;27405;53.316;-6.294;2023-04-03T15:22:02;14.65;;;3.85;;
41719;SDS011;27405;53.316;-6.294;2023-04-03T15:24:28;15.32;;;3.67;;
41719;SDS011;27405;53.316;-6.294;2023-04-03T15:26:54;13.18;;;3.72;;
41719;SDS011;27405;53.316;-6.294;2023-04-03T15:29:20;13.68;;;2.90;;
41719;SDS011;27405;53.316;-6.294;2023-04-03T15:31:46;16.40;;;3.45;;
41719;SDS011;27405;53.316;-6.294;2023-04-03T15:34:11;14.20;;;3.30;;
41719;SDS011;27405;53.316;-6.294;2023-04-03T15:36:37;16.23;;;3.17;;
41719;SDS011;27405;53.316;-6.294;2023-04-03T15:39:03;16.38;;;3.42;;
41719;SDS011;27405;53.316;-6.294;2023-04-03T15:41:28;15.80;;;3.90;;
41719;SDS011;27405;53.316;-6.294;2023-04-03T15:43:54;16.27;;;3.53;;
41719;SDS011;27405;53.316;-6.294;2023-04-03T15:46:20;17.65;;;3.63;;
41719;SDS011;27405;53.316;-6.294;2023-04-03T15:48:46;14.82;;;3.42;;
41719;SDS011;27405;53.316;-6.294;2023-04-03T15:51:11;14.20;;;3.50;;
41719;SDS011;27405;53.316;-6.294;2023-04-03T15:53:37;17.98;;;3.08;;
41719;SDS011;27405;53.316;-6.294;2023-04-03T15:56:03;16.10;;;3.10;;
41719;SDS011;27405;53.316;-6.294;2023-04-03T15:58:29;16.10;;;3.33;;
41719;SDS011;27405;53.316;-6.294;2023-04-03T16:00:55;15.77;;;3.92;;
41719;SDS011;27405;53.316;-6.294;2023-04-03T16:03:21;13.32;;;3.50;;
41719;SDS011;27405;53.316;-6.294;2023-04-03T16:05:49;18.05;;;3.30;;
41719;SDS011;27405;53.316;-6.294;2023-04-03T16:08:15;11.57;;;3.30;;
41719;SDS011;27405;53.316;-6.294;2023-04-03T16:10:43;14.95;;;3.10;;
41719;SDS011;27405;53.316;-6.294;2023-04-03T16:13:10;12.27;;;3.25;;
41719;SDS011;27405;53.316;-6.294;2023-04-03T16:15:36;11.60;;;4.10;;
41719;SDS011;27405;53.316;-6.294;2023-04-03T16:18:03;11.95;;;3.53;;
41719;SDS011;27405;53.316;-6.294;2023-04-03T16:20:29;13.63;;;4.72;;
41719;SDS011;27405;53.316;-6.294;2023-04-03T16:22:56;18.38;;;4.30;;
41719;SDS011;27405;53.316;-6.294;2023-04-03T16:25:24;17.65;;;4.53;;
41719;SDS011;27405;53.316;-6.294;2023-04-03T16:27:51;14.45;;;3.95;;
41719;SDS011;27405;53.316;-6.294;2023-04-03T16:30:17;15.68;;;4.45;;
41719;SDS011;27405;53.316;-6.294;2023-04-03T16:32:43;15.35;;;4.00;;
41719;SDS011;27405;53.316;-6.294;2023-04-03T16:35:09;12.30;;;3.35;;
41719;SDS011;27405;53.316;-6.294;2023-04-03T16:37:35;16.00;;;3.33;;
41719;SDS011;27405;53.316;-6.294;2023-04-03T16:40:02;14.50;;;3.72;;
41719;SDS011;27405;53.316;-6.294;2023-04-03T16:42:30;15.82;;;4.00;;